Здоровье

Карта отелей и гостиниц, располагающихся рядом с аэропортом Здоровье :

Здоровье
Яшалта
Республика Калмыкия 46° 19' 50.0016" N, 42° 16' 32.0988" E
Здоровье
Яшалта
Республика Калмыкия 46° 19' 50.0016" N, 42° 16' 32.0988" E
Код аэродрома ИКАО
HHG8
Код аэродрома RU
ХХГ8
Координаты
N46.33056° E042.27558°
Превышение над уровнем моря
44
Основная полоса
Курс магнитный
Длина основной ВПП
Ширина основной ВПП
Покрытие основной ВПП
Освещение ВПП
Тип: 
Вертодром
Класс аэродрома: 
Принадлежность: 
ГА
Статус: 
Действующий
Сайт: 
E-mail аэродрома: 
Страна: 
Россия
Регион: 
Республика Калмыкия
Город: 
Яшалта
Дополнительная информация: 
Владелец ПП: нет данных.

Найти трансфер

С помощью этой формы Вы можете найти трансфер из аэропорта Здоровье в город, аэропорт или вокзал:

Карта места

Javascript is required to view this map.

Погода в аэропортах:

Авиационная погода в Гомеле

Регион: 
Погода METAR: 
UMGG 171630Z VRB01MPS 8000 -SHRA OVC041CB 09/07 Q1018 R10/D NOSIG
Время наблюдения
2021-04-17T16:30:00Z
Температура C
9.0
Точка росы
7.0
Направление ветра
0
Скорость ветра (узлы)
2
Метео видимость
4.97
Явления погоды
-SHRA
Условия полета
MVFR
Аэропорт подробнее: 

Авиационная погода в Брянске

Регион: 
Погода METAR: 
UUBP 171630Z AUTO 23002MPS 6000 -RA ///007/// ///025/// 06/06 Q1016
Время наблюдения
2021-04-17T16:30:00Z
Температура C
6.0
Точка росы
6.0
Направление ветра
230
Скорость ветра (узлы)
4
Метео видимость
3.73
Явления погоды
-RA
Условия полета
Аэропорт подробнее: 

Авиационная погода в Полярном

Регион: 
Погода METAR: 
UERP 171700Z 30006G12MPS 9999 -SHSN DRSN BKN017CB OVC100 M12/M14 Q0995 NOSIG RMK QFE702
Время наблюдения
2021-04-17T17:00:00Z
Температура C
-12.0
Точка росы
-14.0
Направление ветра
300
Скорость ветра (узлы)
12
Метео видимость
6.21
Явления погоды
-SHSN DRSN
Условия полета
MVFR
Аэропорт подробнее: 

Авиационная погода в Ботсфьорде

Регион: 
Погода METAR: 
ENBS 161920Z 27037G47KT 9999 VCSH SCT020 SCT041 03/01 Q1023
Время наблюдения
2021-04-16T19:20:00Z
Температура C
3.0
Точка росы
1.0
Направление ветра
270
Скорость ветра (узлы)
37
Метео видимость
6.21
Явления погоды
VCSH
Условия полета
VFR